Minerva Antarctica — ZCPE — position and weather

sailwx.info

Track history (hours):
 
Tides and Currents Weather Stations Pressure Air Temp Water Temp Dewpoint Dewpoint Depression Visibility Wind Speed Wind Dir Waves Ship Positions

Minerva Antarctica

Last reported at 2017-Nov-17 12:02 UTC. Time now 2017-Nov-23 01:55 UTC.
Position N 43°09' E 004°59'.

Length 250 m; draft 8 m.

Type: Ship. MMSI: 319562000.

Date/timePositionNaut miles runAvg speedWind from/ knotsBaromVisibWave heightAir tempDewpointWater temp
2017-Nov-17 12:02N 43°09' E 004°59'010.9
2017-Nov-17 12:00N 43°09' E 004°59'510.4
2017-Nov-17 11:30N 43°15' E 004°60'7 9.5
2017-Nov-17 10:47N 43°21' E 004°58'1 3.4
2017-Nov-17 10:31N 43°22' E 004°59'0 0.2
2017-Nov-17 09:59N 43°22' E 004°59'0 0.1
2017-Nov-17 09:29N 43°22' E 004°59'0 0.0
2017-Nov-17 08:59N 43°22' E 004°59'0 0.1
2017-Nov-17 08:29N 43°22' E 004°59'0 0.3
2017-Nov-17 08:00N 43°22' E 004°59'2 4.5
2017-Nov-17 07:30N 43°20' E 004°59'3 5.7
2017-Nov-17 06:59N 43°17' E 005°00'712.2
2017-Nov-17 06:27N 43°11' E 005°03'  
Track history (hours):
 
Tides and Currents Weather Stations Pressure Air Temp Water Temp Dewpoint Dewpoint Depression Visibility Wind Speed Wind Dir Waves Ship Positions

Minerva Antarctica

Last reported at 2017-Nov-17 12:02 UTC. Time now 2017-Nov-23 01:55 UTC.
Position N 43°09' E 004°59'.

Length 250 m; draft 8 m.

Type: Ship. MMSI: 319562000.

Date/timePositionNaut miles runAvg speedWind from/ knotsBaromVisibWave heightAir tempDewpointWater temp
2017-Nov-17 12:02N 43°09' E 004°59'010.9
2017-Nov-17 12:00N 43°09' E 004°59'510.4
2017-Nov-17 11:30N 43°15' E 004°60'7 9.5
2017-Nov-17 10:47N 43°21' E 004°58'1 3.4
2017-Nov-17 10:31N 43°22' E 004°59'0 0.2
2017-Nov-17 09:59N 43°22' E 004°59'0 0.1
2017-Nov-17 09:29N 43°22' E 004°59'0 0.0
2017-Nov-17 08:59N 43°22' E 004°59'0 0.1
2017-Nov-17 08:29N 43°22' E 004°59'0 0.3
2017-Nov-17 08:00N 43°22' E 004°59'2 4.5
2017-Nov-17 07:30N 43°20' E 004°59'3 5.7
2017-Nov-17 06:59N 43°17' E 005°00'712.2
2017-Nov-17 06:27N 43°11' E 005°03'  

Dump ship's entire track history